< < Back
Terminal Aerodrome Forecast


Current Version              Previous Versions:   1  2  3  4  5  6  7  8  9  

Terminal Aerodrome Forecast

235
FTUS44 KMRX 171131
TAFCHA
TAF
KCHA 171131Z 1712/1812 VRB03KT P6SM SCT250
     FM171700 12008G15KT P6SM SCT250
     FM180000 VRB04KT P6SM BKN200=



Latest METAR

413
SAUS80 KWBC 181000 RRA
MTRCHA
METAR KCHA 180953Z 00000KT 10SM BKN060 12/04 A3029 RMK AO2 SLP255 FIRST
T01220044


USA.gov is the U.S. government's official web portal to all federal, state and local government web resources and services.